createdAt,value
2022-12-17T00:01:18.734Z,100934.09
2022-12-17T00:04:07.799Z,100949.94
2022-12-17T00:06:56.770Z,100943.44
2022-12-17T00:09:50.105Z,100930.63
2022-12-17T00:12:39.680Z,100930.63
2022-12-17T00:15:29.220Z,100923.13
2022-12-17T00:18:26.258Z,100925.25
2022-12-17T00:21:18.948Z,100925.84
2022-12-17T00:24:08.788Z,100927.22
2022-12-17T00:26:57.730Z,100926.13
2022-12-17T00:29:46.507Z,100920.31
2022-12-17T00:32:35.374Z,100916.34
2022-12-17T00:35:24.731Z,100914.28
2022-12-17T00:38:13.599Z,100921.22
2022-12-17T00:41:02.673Z,100913.97
2022-12-17T00:43:51.667Z,100918.16
2022-12-17T00:46:41.594Z,100902.72
2022-12-17T00:49:40.028Z,100910.19
2022-12-17T00:52:28.975Z,100906.78
2022-12-17T00:55:18.300Z,100917.69
2022-12-17T00:58:07.286Z,100911.44
2022-12-17T01:00:56.106Z,100914.13
2022-12-17T01:03:45.886Z,100910.16
2022-12-17T01:06:35.129Z,100908.75
2022-12-17T01:09:24.113Z,100904.41
2022-12-17T01:12:12.899Z,100908.19
2022-12-17T01:15:12.871Z,100901.47
2022-12-17T01:18:01.842Z,100905.47
2022-12-17T01:20:50.467Z,100896.47
2022-12-17T01:23:39.967Z,100901.47
2022-12-17T01:26:28.891Z,100889.41
2022-12-17T01:29:18.491Z,100897.69
2022-12-17T01:32:07.518Z,100895.25
2022-12-17T01:34:56.660Z,100885.59
2022-12-17T01:37:48.903Z,100885.44
2022-12-17T01:40:37.685Z,100870.31
2022-12-17T01:43:33.583Z,100875.41
2022-12-17T01:46:22.809Z,100880.50
2022-12-17T01:49:11.503Z,100877.94
2022-12-17T01:52:00.105Z,100872.75
2022-12-17T01:54:48.906Z,100877.97
2022-12-17T01:57:37.865Z,100870.59
2022-12-17T02:00:30.058Z,100864.81
2022-12-17T02:03:20.276Z,100859.53
2022-12-17T02:06:29.312Z,100850.97
2022-12-17T02:09:27.791Z,100856.13
2022-12-17T02:12:24.276Z,100866.22
2022-12-17T02:15:54.004Z,100876.84
2022-12-17T02:18:45.771Z,100879.38
2022-12-17T02:21:35.043Z,100870.31
2022-12-17T02:24:46.523Z,100877.16
2022-12-17T02:27:36.159Z,100861.53
2022-12-17T02:30:27.373Z,100869.34
2022-12-17T02:33:16.850Z,100873.13
2022-12-17T02:36:12.586Z,100866.53
2022-12-17T02:39:01.688Z,100851.72
2022-12-17T02:42:12.091Z,100856.97
2022-12-17T02:45:02.608Z,100846.75
2022-12-17T02:47:52.350Z,100834.75
2022-12-17T02:50:41.488Z,100834.31
2022-12-17T02:53:30.789Z,100831.31
2022-12-17T02:56:19.718Z,100838.66
2022-12-17T02:59:08.711Z,100838.47
2022-12-17T03:01:58.526Z,100837.59
2022-12-17T03:04:47.644Z,100840.09
2022-12-17T03:07:36.650Z,100841.41
2022-12-17T03:10:26.482Z,100842.53
2022-12-17T03:13:15.541Z,100834.22
2022-12-17T03:16:04.318Z,100837.53
2022-12-17T03:18:53.443Z,100839.19
2022-12-17T03:21:45.742Z,100838.28
2022-12-17T03:24:35.689Z,100830.25
2022-12-17T03:27:24.306Z,100837.69
2022-12-17T03:30:13.444Z,100822.25
2022-12-17T03:33:02.514Z,100829.31
2022-12-17T03:35:51.377Z,100826.28
2022-12-17T03:38:40.590Z,100821.00
2022-12-17T03:41:30.023Z,100816.09
2022-12-17T03:44:18.869Z,100815.75
2022-12-17T03:47:07.900Z,100812.66
2022-12-17T03:49:57.209Z,100800.31
2022-12-17T03:52:46.253Z,100807.88
2022-12-17T03:55:35.180Z,100806.66
2022-12-17T03:58:24.202Z,100792.94
2022-12-17T04:01:13.012Z,100800.44
2022-12-17T04:04:05.409Z,100798.00
2022-12-17T04:06:55.306Z,100784.19
2022-12-17T04:09:44.354Z,100789.28
2022-12-17T04:12:36.697Z,100789.84
2022-12-17T04:15:26.034Z,100776.63
2022-12-17T04:18:15.083Z,100780.59
2022-12-17T04:21:03.919Z,100781.06
2022-12-17T04:23:52.721Z,100776.97
2022-12-17T04:26:44.122Z,100784.00
2022-12-17T04:29:33.032Z,100783.28
2022-12-17T04:32:22.119Z,100785.06
2022-12-17T04:35:10.993Z,100800.81
2022-12-17T04:38:00.069Z,100803.97
2022-12-17T04:40:49.012Z,100806.69
2022-12-17T04:43:38.411Z,100801.78
2022-12-17T04:46:27.745Z,100792.09
2022-12-17T04:49:16.837Z,100800.28
2022-12-17T04:52:05.909Z,100798.63
2022-12-17T04:54:54.358Z,100794.03
2022-12-17T04:57:43.345Z,100802.16
2022-12-17T05:00:32.837Z,100791.28
2022-12-17T05:03:26.262Z,100792.28
2022-12-17T05:06:15.291Z,100796.03
2022-12-17T05:09:04.065Z,100793.31
2022-12-17T05:11:53.215Z,100797.38
2022-12-17T05:14:41.986Z,100793.16
2022-12-17T05:17:30.777Z,100791.19
2022-12-17T05:20:19.859Z,100801.81
2022-12-17T05:23:08.655Z,100796.78
2022-12-17T05:25:58.109Z,100805.44
2022-12-17T05:28:52.449Z,100805.56
2022-12-17T05:31:41.638Z,100802.09
2022-12-17T05:34:30.691Z,100802.53
2022-12-17T05:37:19.745Z,100796.84
2022-12-17T05:40:12.547Z,100805.56
2022-12-17T05:43:01.730Z,100810.75
2022-12-17T05:45:50.937Z,100816.06
2022-12-17T05:48:39.889Z,100807.19
2022-12-17T05:51:28.855Z,100806.13
2022-12-17T05:54:17.815Z,100803.75
2022-12-17T05:57:06.713Z,100815.22
2022-12-17T05:59:55.287Z,100814.38
2022-12-17T06:02:44.963Z,100819.69
2022-12-17T06:05:34.195Z,100809.16
2022-12-17T06:08:27.562Z,100822.34
2022-12-17T06:11:19.661Z,100811.31
2022-12-17T06:14:08.802Z,100816.16
2022-12-17T06:16:57.772Z,100830.31
2022-12-17T06:19:46.551Z,100822.88
2022-12-17T06:22:35.348Z,100822.81
2022-12-17T06:25:24.260Z,100833.25
2022-12-17T06:28:37.876Z,100833.91
2022-12-17T06:31:38.362Z,100836.78
2022-12-17T06:34:27.365Z,100828.81
2022-12-17T06:37:16.315Z,100837.53
2022-12-17T06:40:05.200Z,100841.25
2022-12-17T06:42:54.397Z,100840.75
2022-12-17T06:45:43.396Z,100840.91
2022-12-17T06:48:32.265Z,100847.50
2022-12-17T06:51:21.224Z,100841.53
2022-12-17T06:54:10.289Z,100846.97
2022-12-17T06:56:58.886Z,100842.53
2022-12-17T07:00:04.435Z,100856.28
2022-12-17T07:02:53.901Z,100858.31
2022-12-17T07:05:43.035Z,100857.63
2022-12-17T07:08:33.013Z,100863.84
2022-12-17T07:11:22.655Z,100871.81
2022-12-17T07:14:11.644Z,100874.25
2022-12-17T07:17:00.730Z,100870.28
2022-12-17T07:19:49.947Z,100881.09
2022-12-17T07:22:38.799Z,100893.09
2022-12-17T07:25:28.508Z,100896.41
2022-12-17T07:28:17.575Z,100904.63
2022-12-17T07:31:06.395Z,100908.50
2022-12-17T07:33:56.131Z,100914.28
2022-12-17T07:36:46.289Z,100913.03
2022-12-17T07:39:35.279Z,100908.91
2022-12-17T07:42:24.153Z,100895.63
2022-12-17T07:45:12.926Z,100911.22
2022-12-17T07:48:01.546Z,100913.63
2022-12-17T07:50:52.236Z,100904.44
2022-12-17T07:53:41.210Z,100896.78
2022-12-17T07:56:30.034Z,100901.44
2022-12-17T07:59:19.088Z,100905.53
2022-12-17T08:02:08.148Z,100917.44
2022-12-17T08:04:57.117Z,100917.78
2022-12-17T08:07:46.600Z,100925.22
2022-12-17T08:10:46.680Z,100936.38
2022-12-17T08:13:36.088Z,100938.50
2022-12-17T08:16:25.752Z,100941.25
2022-12-17T08:19:14.613Z,100937.16
2022-12-17T08:22:03.318Z,100947.09
2022-12-17T08:24:52.328Z,100944.97
2022-12-17T08:27:41.551Z,100937.31
2022-12-17T08:30:31.012Z,100945.75
2022-12-17T08:33:26.387Z,100934.88
2022-12-17T08:36:16.850Z,100938.75
2022-12-17T08:39:06.096Z,100940.78
2022-12-17T08:41:56.599Z,100948.22
2022-12-17T08:44:47.968Z,100949.88
2022-12-17T08:47:36.980Z,100953.66
2022-12-17T08:50:26.841Z,100943.84
2022-12-17T08:53:23.129Z,100946.00
2022-12-17T08:56:12.129Z,100951.69
2022-12-17T08:59:00.804Z,100940.44
2022-12-17T09:01:49.942Z,100952.59
2022-12-17T09:04:39.183Z,100948.25
2022-12-17T09:07:28.340Z,100949.09
2022-12-17T09:10:17.234Z,100937.03
2022-12-17T09:13:06.104Z,100932.69
2022-12-17T09:15:54.869Z,100937.63
2022-12-17T09:18:43.964Z,100931.03
2022-12-17T09:21:32.949Z,100937.56
2022-12-17T09:24:21.680Z,100930.06
2022-12-17T09:27:10.683Z,100938.66
2022-12-17T09:30:00.038Z,100942.00
2022-12-17T09:32:48.847Z,100934.94
2022-12-17T09:35:37.935Z,100941.19
2022-12-17T09:38:28.303Z,100933.63
2022-12-17T09:41:23.199Z,100940.13
2022-12-17T09:44:24.809Z,100941.19
2022-12-17T09:47:19.703Z,100940.66
2022-12-17T09:50:08.483Z,100935.13
2022-12-17T09:53:00.393Z,100922.09
2022-12-17T09:56:00.181Z,100936.59
2022-12-17T09:58:50.564Z,100935.47
2022-12-17T10:01:44.309Z,100922.41
2022-12-17T10:04:39.840Z,100936.00
2022-12-17T10:07:37.766Z,100930.81
2022-12-17T10:10:42.670Z,100933.88
2022-12-17T10:13:33.876Z,100935.00
2022-12-17T10:16:23.185Z,100936.59
2022-12-17T10:19:25.739Z,100941.22
2022-12-17T10:22:14.635Z,100935.16
2022-12-17T10:25:06.824Z,100927.09
2022-12-17T10:27:55.965Z,100928.09
2022-12-17T10:30:47.445Z,100930.31
2022-12-17T10:33:53.983Z,100927.25
2022-12-17T10:36:45.073Z,100923.22
2022-12-17T10:39:43.376Z,100930.81
2022-12-17T10:42:58.873Z,100923.75
2022-12-17T10:45:53.724Z,100917.22
2022-12-17T10:48:47.446Z,100913.31
2022-12-17T10:51:48.728Z,100885.66
2022-12-17T10:54:50.159Z,100895.69
2022-12-17T10:57:47.625Z,100895.69
2022-12-17T11:00:49.442Z,100897.56
2022-12-17T11:03:52.805Z,100894.88
2022-12-17T11:06:51.339Z,100897.38
2022-12-17T11:09:55.626Z,100903.59
2022-12-17T11:12:56.798Z,100897.63
2022-12-17T11:15:54.485Z,100894.44
2022-12-17T11:19:00.576Z,100906.91
2022-12-17T11:21:53.966Z,100905.53
2022-12-17T11:24:50.114Z,100898.75
2022-12-17T11:27:45.753Z,100897.56
2022-12-17T11:30:35.827Z,100901.69
2022-12-17T11:33:49.817Z,100893.00
2022-12-17T11:36:55.815Z,100892.16
2022-12-17T11:40:04.603Z,100885.94
2022-12-17T11:43:01.720Z,100888.94
2022-12-17T11:46:10.523Z,100880.75
2022-12-17T11:49:34.597Z,100874.13
2022-12-17T11:52:43.494Z,100873.03
2022-12-17T11:55:57.897Z,100858.38
2022-12-17T11:59:06.838Z,100868.47
2022-12-17T12:02:05.054Z,100882.66
2022-12-17T12:05:04.738Z,100887.69
2022-12-17T12:08:08.934Z,100882.59
2022-12-17T12:11:14.470Z,100873.69
2022-12-17T12:14:41.312Z,100863.91
2022-12-17T12:17:53.985Z,100863.91
2022-12-17T12:21:04.638Z,100856.88
2022-12-17T12:24:15.000Z,100851.97
2022-12-17T12:27:20.406Z,100860.63
2022-12-17T12:30:36.462Z,100852.47
2022-12-17T12:33:51.619Z,100829.66
2022-12-17T12:36:42.106Z,100831.78
2022-12-17T12:39:33.467Z,100835.34
2022-12-17T12:42:35.696Z,100833.13
2022-12-17T12:45:37.105Z,100840.22
2022-12-17T12:48:44.335Z,100842.91
2022-12-17T12:51:58.062Z,100840.38
2022-12-17T12:55:07.151Z,100830.63
2022-12-17T12:58:28.202Z,100831.38
2022-12-17T13:01:17.096Z,100829.88
2022-12-17T13:04:06.054Z,100827.13
2022-12-17T13:06:58.382Z,100820.03
2022-12-17T13:09:34.260Z,100819.50
2022-12-17T13:12:06.121Z,100823.06
2022-12-17T13:15:09.939Z,100819.50
2022-12-17T13:17:45.064Z,100819.53
2022-12-17T13:20:26.967Z,100813.22
2022-12-17T13:23:29.081Z,100813.84
2022-12-17T13:26:23.574Z,100808.88
2022-12-17T13:29:03.526Z,100800.69
2022-12-17T13:32:07.978Z,100798.25
2022-12-17T13:34:56.941Z,100788.19
2022-12-17T13:37:55.227Z,100783.88
2022-12-17T13:40:58.646Z,100792.78
2022-12-17T13:43:34.851Z,100798.22
2022-12-17T13:46:05.860Z,100790.91
2022-12-17T13:48:37.415Z,100786.00
2022-12-17T13:51:08.709Z,100784.94
2022-12-17T13:53:40.792Z,100768.06
2022-12-17T13:56:12.665Z,100766.69
2022-12-17T13:58:48.177Z,100759.94
2022-12-17T14:01:21.984Z,100751.50
2022-12-17T14:04:06.253Z,100758.84
2022-12-17T14:06:39.994Z,100754.69
2022-12-17T14:09:18.726Z,100752.59
2022-12-17T14:12:09.233Z,100760.13
2022-12-17T14:14:43.160Z,100756.84
2022-12-17T14:17:40.847Z,100760.31
2022-12-17T14:20:28.665Z,100755.78
2022-12-17T14:23:07.582Z,100742.75
2022-12-17T14:25:40.743Z,100754.59
2022-12-17T14:28:38.256Z,100755.03
2022-12-17T14:31:27.687Z,100736.00
2022-12-17T14:34:08.895Z,100751.47
2022-12-17T14:36:42.227Z,100746.03
2022-12-17T14:39:45.969Z,100749.53
2022-12-17T14:42:32.185Z,100739.22
2022-12-17T14:45:27.729Z,100738.34
2022-12-17T14:48:03.360Z,100740.78
2022-12-17T14:50:36.756Z,100738.78
2022-12-17T14:53:29.351Z,100743.22
2022-12-17T14:56:01.302Z,100738.31
2022-12-17T14:58:32.405Z,100734.81
2022-12-17T15:01:12.751Z,100743.47
2022-12-17T15:03:47.644Z,100742.59
2022-12-17T15:06:22.221Z,100738.31
2022-12-17T15:08:54.891Z,100742.88
2022-12-17T15:11:26.680Z,100735.56
2022-12-17T15:13:57.587Z,100744.03
2022-12-17T15:16:28.670Z,100726.09
2022-12-17T15:18:59.696Z,100737.78
2022-12-17T15:21:30.767Z,100733.19
2022-12-17T15:24:01.788Z,100731.50
2022-12-17T15:26:32.691Z,100732.34
2022-12-17T15:29:03.921Z,100739.88
2022-12-17T15:31:35.839Z,100734.81
2022-12-17T15:34:07.267Z,100740.31
2022-12-17T15:36:37.734Z,100737.28
2022-12-17T15:39:08.709Z,100729.97
2022-12-17T15:41:57.486Z,100717.78
2022-12-17T15:44:29.153Z,100732.13
2022-12-17T15:47:00.699Z,100721.28
2022-12-17T15:49:31.580Z,100727.25
2022-12-17T15:52:02.223Z,100731.94
2022-12-17T15:54:32.970Z,100735.94
2022-12-17T15:57:03.723Z,100733.81
2022-12-17T15:59:35.162Z,100723.81
2022-12-17T16:02:06.288Z,100725.16
2022-12-17T16:04:39.036Z,100735.69
2022-12-17T16:07:09.992Z,100739.78
2022-12-17T16:09:41.317Z,100737.06
2022-12-17T16:12:12.210Z,100737.34
2022-12-17T16:14:43.036Z,100736.44
2022-12-17T16:17:13.910Z,100740.88
2022-12-17T16:19:44.662Z,100737.38
2022-12-17T16:22:15.606Z,100733.81
2022-12-17T16:24:46.477Z,100740.88
2022-12-17T16:27:19.618Z,100722.66
2022-12-17T16:29:50.584Z,100716.13
2022-12-17T16:32:21.479Z,100716.97
2022-12-17T16:34:52.167Z,100709.66
2022-12-17T16:37:23.133Z,100707.72
2022-12-17T16:39:59.753Z,100714.03
2022-12-17T16:42:32.324Z,100721.63
2022-12-17T16:45:03.196Z,100714.59
2022-12-17T16:47:34.398Z,100709.69
2022-12-17T16:50:05.351Z,100684.41
2022-12-17T16:52:36.753Z,100684.94
2022-12-17T16:55:07.846Z,100672.34
2022-12-17T16:57:38.957Z,100671.59
2022-12-17T17:00:10.448Z,100680.59
2022-12-17T17:02:41.731Z,100706.13
2022-12-17T17:05:14.042Z,100714.88
2022-12-17T17:07:51.053Z,100720.09
2022-12-17T17:10:21.907Z,100713.75
2022-12-17T17:12:56.314Z,100710.47
2022-12-17T17:15:27.238Z,100709.72
2022-12-17T17:18:01.666Z,100719.78
2022-12-17T17:20:33.636Z,100716.84
2022-12-17T17:23:04.738Z,100723.06
2022-12-17T17:25:57.272Z,100737.22
2022-12-17T17:28:26.523Z,100723.09
2022-12-17T17:31:08.875Z,100734.81
2022-12-17T17:33:42.041Z,100732.84
2022-12-17T17:36:21.058Z,100741.00
2022-12-17T17:38:53.347Z,100735.41
2022-12-17T17:41:26.006Z,100740.41
2022-12-17T17:43:58.772Z,100738.75
2022-12-17T17:46:30.853Z,100745.84
2022-12-17T17:49:03.534Z,100744.72
2022-12-17T17:54:33.792Z,100746.13
2022-12-17T17:57:04.538Z,100754.44
2022-12-17T17:59:35.537Z,100753.41
2022-12-17T18:02:06.844Z,100751.50
2022-12-17T18:04:37.559Z,100754.75
2022-12-17T18:10:01.132Z,100757.66
2022-12-17T18:12:50.977Z,100763.06
2022-12-17T18:15:21.709Z,100741.44
2022-12-17T18:17:53.906Z,100776.19
2022-12-17T18:20:24.961Z,100773.38
2022-12-17T18:22:55.698Z,100777.81
2022-12-17T18:25:26.662Z,100782.69
2022-12-17T18:27:57.875Z,100790.59
2022-12-17T18:30:28.589Z,100787.25
2022-12-17T18:32:59.459Z,100780.38
2022-12-17T18:35:30.409Z,100792.31
2022-12-17T18:38:01.267Z,100792.00
2022-12-17T18:40:33.612Z,100799.75
2022-12-17T18:43:22.675Z,100793.09
2022-12-17T18:45:54.887Z,100786.13
2022-12-17T18:48:25.750Z,100789.69
2022-12-17T18:51:02.723Z,100784.00
2022-12-17T18:53:35.064Z,100781.59
2022-12-17T18:56:19.357Z,100774.78
2022-12-17T18:58:57.822Z,100781.47
2022-12-17T19:01:33.847Z,100770.91
2022-12-17T19:04:07.331Z,100769.22
2022-12-17T19:06:39.961Z,100775.00
2022-12-17T19:09:17.735Z,100771.34
2022-12-17T19:11:48.764Z,100765.88
2022-12-17T19:14:19.890Z,100761.16
2022-12-17T19:16:52.446Z,100764.38
2022-12-17T19:19:24.094Z,100770.06
2022-12-17T19:21:56.317Z,100769.66
2022-12-17T19:24:27.128Z,100766.28
2022-12-17T19:26:58.206Z,100770.47
2022-12-17T19:29:29.145Z,100769.38
2022-12-17T19:32:00.176Z,100778.06
2022-12-17T19:34:31.133Z,100785.19
2022-12-17T19:37:01.954Z,100772.72
2022-12-17T19:39:32.646Z,100789.94
2022-12-17T19:42:03.340Z,100795.50
2022-12-17T19:44:35.592Z,100795.28
2022-12-17T19:47:07.134Z,100796.47
2022-12-17T19:49:38.103Z,100797.97
2022-12-17T19:52:09.570Z,100796.16
2022-12-17T19:54:40.565Z,100789.78
2022-12-17T19:57:11.229Z,100779.34
2022-12-17T19:59:49.391Z,100785.44
2022-12-17T20:02:22.194Z,100793.00
2022-12-17T20:04:53.131Z,100787.47
2022-12-17T20:07:24.026Z,100787.78
2022-12-17T20:09:57.617Z,100778.38
2022-12-17T20:12:28.319Z,100785.53
2022-12-17T20:14:59.059Z,100787.38
2022-12-17T20:17:29.806Z,100783.75
2022-12-17T20:20:00.536Z,100786.72
2022-12-17T20:22:32.192Z,100792.09
2022-12-17T20:25:06.290Z,100790.03
2022-12-17T20:27:37.003Z,100793.66
2022-12-17T20:30:09.031Z,100787.22
2022-12-17T20:32:40.034Z,100778.50
2022-12-17T20:35:11.132Z,100781.44
2022-12-17T20:37:41.871Z,100770.59
2022-12-17T20:40:13.226Z,100782.00
2022-12-17T20:42:43.728Z,100775.03
2022-12-17T20:45:14.732Z,100783.34
2022-12-17T20:47:46.009Z,100762.13
2022-12-17T20:50:16.276Z,100756.81
2022-12-17T20:52:47.876Z,100761.50
2022-12-17T20:55:18.805Z,100766.91
2022-12-17T20:57:49.962Z,100754.22
2022-12-17T21:00:20.773Z,100769.34
2022-12-17T21:02:52.164Z,100762.16
2022-12-17T21:05:23.075Z,100771.19
2022-12-17T21:07:54.310Z,100756.91
2022-12-17T21:10:25.583Z,100756.97
2022-12-17T21:13:17.230Z,100747.28
2022-12-17T21:15:55.539Z,100756.41
2022-12-17T21:18:32.506Z,100749.19
2022-12-17T21:21:07.300Z,100747.97
2022-12-17T21:23:43.471Z,100752.25
2022-12-17T21:26:20.233Z,100745.06
2022-12-17T21:28:53.767Z,100751.31
2022-12-17T21:31:30.167Z,100750.19
2022-12-17T21:34:03.186Z,100746.81
2022-12-17T21:36:35.689Z,100741.91
2022-12-17T21:39:09.458Z,100747.13
2022-12-17T21:41:44.470Z,100747.53
2022-12-17T21:44:16.084Z,100747.31
2022-12-17T21:46:50.303Z,100745.03
2022-12-17T21:49:21.398Z,100747.06
2022-12-17T21:51:52.510Z,100742.84
2022-12-17T21:54:23.489Z,100746.41
2022-12-17T21:56:54.632Z,100733.09
2022-12-17T21:59:25.573Z,100735.84
2022-12-17T22:01:58.600Z,100741.56
2022-12-17T22:04:29.733Z,100733.69
2022-12-17T22:07:08.566Z,100728.72
2022-12-17T22:10:10.044Z,100728.28
2022-12-17T22:12:50.528Z,100727.16
2022-12-17T22:15:21.602Z,100733.66
2022-12-17T22:17:57.075Z,100722.34
2022-12-17T22:20:29.087Z,100723.50
2022-12-17T22:22:59.868Z,100719.06
2022-12-17T22:25:30.532Z,100727.09
2022-12-17T22:28:01.398Z,100727.16
2022-12-17T22:30:50.408Z,100725.56
2022-12-17T22:33:53.597Z,100720.28
2022-12-17T22:38:03.301Z,100715.50
2022-12-17T22:43:15.983Z,100713.72
2022-12-17T22:44:29.421Z,100722.84
2022-12-17T22:45:11.408Z,100724.88
2022-12-17T22:47:42.890Z,100728.66
2022-12-17T22:50:13.622Z,100718.97
2022-12-17T22:52:45.194Z,100708.84
2022-12-17T22:55:17.055Z,100723.06
2022-12-17T22:57:47.743Z,100719.09
2022-12-17T23:00:23.638Z,100721.41
2022-12-17T23:02:59.078Z,100713.09
2022-12-17T23:05:31.507Z,100712.81
2022-12-17T23:08:02.551Z,100722.53
2022-12-17T23:10:33.491Z,100710.19
2022-12-17T23:13:04.286Z,100702.09
2022-12-17T23:15:39.253Z,100711.56
2022-12-17T23:18:11.095Z,100706.75
2022-12-17T23:20:42.095Z,100705.81
2022-12-17T23:23:13.135Z,100696.31
2022-12-17T23:25:44.008Z,100700.69
2022-12-17T23:28:15.461Z,100699.44
2022-12-17T23:30:46.204Z,100707.47
2022-12-17T23:33:17.149Z,100704.91
2022-12-17T23:35:48.294Z,100693.28
2022-12-17T23:38:18.920Z,100683.50
2022-12-17T23:40:49.962Z,100690.81
2022-12-17T23:43:20.915Z,100687.97
2022-12-17T23:45:51.625Z,100674.09
2022-12-17T23:48:22.836Z,100670.34
2022-12-17T23:50:53.935Z,100676.34
2022-12-17T23:53:25.009Z,100671.28
2022-12-17T23:55:56.624Z,100660.09
2022-12-17T23:58:27.036Z,100653.06
